sensor_id;sensor_type;location;lat;lon;timestamp;P1;durP1;ratioP1;P2;durP2;ratioP2
66581;SDS011;53438;48.898;2.308;2024-01-25T00:02:15;12.27;;;2.70;;
66581;SDS011;53438;48.898;2.308;2024-01-25T00:04:40;12.00;;;2.85;;
66581;SDS011;53438;48.898;2.308;2024-01-25T00:07:07;12.97;;;2.77;;
66581;SDS011;53438;48.898;2.308;2024-01-25T00:09:33;23.10;;;4.05;;
66581;SDS011;53438;48.898;2.308;2024-01-25T00:11:59;13.40;;;2.77;;
66581;SDS011;53438;48.898;2.308;2024-01-25T00:14:24;15.97;;;4.20;;
66581;SDS011;53438;48.898;2.308;2024-01-25T00:16:49;21.80;;;3.60;;
66581;SDS011;53438;48.898;2.308;2024-01-25T00:19:15;17.43;;;4.60;;
66581;SDS011;53438;48.898;2.308;2024-01-25T00:21:44;15.90;;;3.67;;
66581;SDS011;53438;48.898;2.308;2024-01-25T00:24:12;19.50;;;3.50;;
66581;SDS011;53438;48.898;2.308;2024-01-25T00:26:38;18.75;;;3.38;;
66581;SDS011;53438;48.898;2.308;2024-01-25T00:29:04;14.37;;;3.23;;
66581;SDS011;53438;48.898;2.308;2024-01-25T00:31:29;18.15;;;4.10;;
66581;SDS011;53438;48.898;2.308;2024-01-25T00:33:55;19.93;;;3.57;;
66581;SDS011;53438;48.898;2.308;2024-01-25T00:36:22;15.65;;;3.45;;
66581;SDS011;53438;48.898;2.308;2024-01-25T00:38:47;14.43;;;3.47;;
66581;SDS011;53438;48.898;2.308;2024-01-25T00:41:14;22.02;;;3.55;;
66581;SDS011;53438;48.898;2.308;2024-01-25T00:43:42;18.77;;;3.33;;
66581;SDS011;53438;48.898;2.308;2024-01-25T00:46:08;26.85;;;4.20;;
66581;SDS011;53438;48.898;2.308;2024-01-25T00:48:34;19.38;;;3.97;;
66581;SDS011;53438;48.898;2.308;2024-01-25T00:51:00;17.53;;;3.60;;
66581;SDS011;53438;48.898;2.308;2024-01-25T00:53:25;18.00;;;3.23;;
66581;SDS011;53438;48.898;2.308;2024-01-25T00:55:51;21.27;;;3.65;;
66581;SDS011;53438;48.898;2.308;2024-01-25T00:58:17;13.97;;;2.97;;
66581;SDS011;53438;48.898;2.308;2024-01-25T04:02:34;13.40;;;5.03;;
66581;SDS011;53438;48.898;2.308;2024-01-25T04:05:00;16.02;;;5.60;;
66581;SDS011;53438;48.898;2.308;2024-01-25T04:07:25;20.30;;;6.15;;
66581;SDS011;53438;48.898;2.308;2024-01-25T04:09:50;15.35;;;5.68;;
66581;SDS011;53438;48.898;2.308;2024-01-25T04:12:16;19.17;;;6.00;;
66581;SDS011;53438;48.898;2.308;2024-01-25T04:14:41;18.27;;;4.73;;
66581;SDS011;53438;48.898;2.308;2024-01-25T04:17:06;18.83;;;4.73;;
66581;SDS011;53438;48.898;2.308;2024-01-25T04:19:32;12.63;;;4.10;;
66581;SDS011;53438;48.898;2.308;2024-01-25T04:21:57;18.97;;;4.63;;
66581;SDS011;53438;48.898;2.308;2024-01-25T04:24:22;10.83;;;4.30;;
66581;SDS011;53438;48.898;2.308;2024-01-25T04:26:48;15.60;;;5.03;;
66581;SDS011;53438;48.898;2.308;2024-01-25T04:29:13;13.70;;;4.87;;
66581;SDS011;53438;48.898;2.308;2024-01-25T04:31:42;14.97;;;4.77;;
66581;SDS011;53438;48.898;2.308;2024-01-25T04:34:12;15.85;;;5.22;;
66581;SDS011;53438;48.898;2.308;2024-01-25T04:36:38;13.55;;;4.40;;
66581;SDS011;53438;48.898;2.308;2024-01-25T04:39:03;14.03;;;4.70;;
66581;SDS011;53438;48.898;2.308;2024-01-25T04:41:29;20.17;;;5.15;;
66581;SDS011;53438;48.898;2.308;2024-01-25T04:43:54;20.60;;;4.93;;
66581;SDS011;53438;48.898;2.308;2024-01-25T04:46:20;17.47;;;5.57;;
66581;SDS011;53438;48.898;2.308;2024-01-25T04:48:45;19.57;;;4.77;;
66581;SDS011;53438;48.898;2.308;2024-01-25T04:51:15;18.23;;;4.80;;
66581;SDS011;53438;48.898;2.308;2024-01-25T04:53:41;19.35;;;6.35;;
66581;SDS011;53438;48.898;2.308;2024-01-25T04:56:07;21.83;;;5.70;;
66581;SDS011;53438;48.898;2.308;2024-01-25T04:58:32;15.77;;;5.27;;
66581;SDS011;53438;48.898;2.308;2024-01-25T05:00:57;17.40;;;6.23;;
66581;SDS011;53438;48.898;2.308;2024-01-25T05:03:23;15.50;;;6.00;;
66581;SDS011;53438;48.898;2.308;2024-01-25T05:05:48;18.07;;;5.93;;
66581;SDS011;53438;48.898;2.308;2024-01-25T05:08:13;17.17;;;5.97;;
66581;SDS011;53438;48.898;2.308;2024-01-25T05:10:39;17.50;;;6.25;;
66581;SDS011;53438;48.898;2.308;2024-01-25T05:13:04;20.10;;;7.13;;
66581;SDS011;53438;48.898;2.308;2024-01-25T05:15:29;21.83;;;6.90;;
66581;SDS011;53438;48.898;2.308;2024-01-25T05:17:55;27.87;;;7.13;;
66581;SDS011;53438;48.898;2.308;2024-01-25T05:20:20;19.83;;;6.50;;
66581;SDS011;53438;48.898;2.308;2024-01-25T05:22:45;16.03;;;6.33;;
66581;SDS011;53438;48.898;2.308;2024-01-25T05:25:11;17.90;;;6.80;;
66581;SDS011;53438;48.898;2.308;2024-01-25T05:27:37;20.40;;;6.93;;
66581;SDS011;53438;48.898;2.308;2024-01-25T05:30:02;21.00;;;7.57;;
66581;SDS011;53438;48.898;2.308;2024-01-25T05:32:28;15.70;;;6.77;;
66581;SDS011;53438;48.898;2.308;2024-01-25T05:34:54;15.02;;;6.30;;
66581;SDS011;53438;48.898;2.308;2024-01-25T05:37:19;17.00;;;7.60;;
66581;SDS011;53438;48.898;2.308;2024-01-25T05:39:44;16.50;;;7.73;;
66581;SDS011;53438;48.898;2.308;2024-01-25T05:42:10;17.27;;;7.57;;
66581;SDS011;53438;48.898;2.308;2024-01-25T05:44:35;17.30;;;7.43;;
66581;SDS011;53438;48.898;2.308;2024-01-25T05:47:01;17.43;;;7.30;;
66581;SDS011;53438;48.898;2.308;2024-01-25T05:49:26;17.77;;;8.17;;
66581;SDS011;53438;48.898;2.308;2024-01-25T05:51:51;14.90;;;6.80;;
66581;SDS011;53438;48.898;2.308;2024-01-25T05:54:16;17.30;;;7.37;;
66581;SDS011;53438;48.898;2.308;2024-01-25T05:56:42;18.60;;;8.40;;
66581;SDS011;53438;48.898;2.308;2024-01-25T05:59:07;20.65;;;8.00;;
66581;SDS011;53438;48.898;2.308;2024-01-25T06:01:32;15.97;;;7.00;;
66581;SDS011;53438;48.898;2.308;2024-01-25T06:03:58;16.33;;;7.23;;
66581;SDS011;53438;48.898;2.308;2024-01-25T06:06:23;19.27;;;8.20;;
66581;SDS011;53438;48.898;2.308;2024-01-25T06:08:48;22.80;;;10.27;;
66581;SDS011;53438;48.898;2.308;2024-01-25T06:11:14;30.40;;;13.43;;
66581;SDS011;53438;48.898;2.308;2024-01-25T06:13:40;20.58;;;9.57;;
66581;SDS011;53438;48.898;2.308;2024-01-25T06:16:06;23.57;;;10.17;;
66581;SDS011;53438;48.898;2.308;2024-01-25T06:18:31;17.83;;;9.73;;
66581;SDS011;53438;48.898;2.308;2024-01-25T06:20:56;24.70;;;10.87;;
66581;SDS011;53438;48.898;2.308;2024-01-25T06:23:22;21.80;;;10.27;;
66581;SDS011;53438;48.898;2.308;2024-01-25T06:25:47;23.60;;;10.70;;
66581;SDS011;53438;48.898;2.308;2024-01-25T06:28:13;23.43;;;10.07;;
66581;SDS011;53438;48.898;2.308;2024-01-25T06:30:38;24.50;;;11.13;;
66581;SDS011;53438;48.898;2.308;2024-01-25T06:33:03;24.27;;;11.10;;
66581;SDS011;53438;48.898;2.308;2024-01-25T06:35:29;19.88;;;10.30;;
66581;SDS011;53438;48.898;2.308;2024-01-25T06:37:55;19.73;;;10.17;;
66581;SDS011;53438;48.898;2.308;2024-01-25T06:40:21;22.92;;;10.60;;
66581;SDS011;53438;48.898;2.308;2024-01-25T06:42:46;19.90;;;9.52;;
66581;SDS011;53438;48.898;2.308;2024-01-25T06:45:11;19.37;;;8.53;;
66581;SDS011;53438;48.898;2.308;2024-01-25T06:47:37;13.90;;;8.13;;
66581;SDS011;53438;48.898;2.308;2024-01-25T06:50:02;15.40;;;7.70;;
66581;SDS011;53438;48.898;2.308;2024-01-25T06:52:28;15.70;;;8.27;;
66581;SDS011;53438;48.898;2.308;2024-01-25T06:54:53;17.43;;;8.70;;
66581;SDS011;53438;48.898;2.308;2024-01-25T06:57:18;17.70;;;9.13;;
66581;SDS011;53438;48.898;2.308;2024-01-25T06:59:45;17.25;;;7.82;;
66581;SDS011;53438;48.898;2.308;2024-01-25T07:02:10;17.07;;;8.47;;
66581;SDS011;53438;48.898;2.308;2024-01-25T07:04:36;19.93;;;8.63;;
66581;SDS011;53438;48.898;2.308;2024-01-25T07:07:03;18.13;;;8.73;;
66581;SDS011;53438;48.898;2.308;2024-01-25T07:09:28;18.88;;;9.35;;
66581;SDS011;53438;48.898;2.308;2024-01-25T07:11:54;19.07;;;8.53;;
66581;SDS011;53438;48.898;2.308;2024-01-25T07:14:19;17.80;;;8.30;;
66581;SDS011;53438;48.898;2.308;2024-01-25T07:16:44;22.03;;;9.53;;
66581;SDS011;53438;48.898;2.308;2024-01-25T07:19:10;19.40;;;8.77;;
66581;SDS011;53438;48.898;2.308;2024-01-25T07:21:35;17.80;;;8.65;;
66581;SDS011;53438;48.898;2.308;2024-01-25T07:24:01;19.17;;;8.23;;
66581;SDS011;53438;48.898;2.308;2024-01-25T07:26:28;16.93;;;8.13;;
66581;SDS011;53438;48.898;2.308;2024-01-25T07:28:55;19.92;;;8.82;;
66581;SDS011;53438;48.898;2.308;2024-01-25T07:31:24;21.20;;;8.60;;
66581;SDS011;53438;48.898;2.308;2024-01-25T07:33:50;18.67;;;8.23;;
66581;SDS011;53438;48.898;2.308;2024-01-25T07:36:16;18.03;;;8.63;;
66581;SDS011;53438;48.898;2.308;2024-01-25T07:38:42;19.67;;;8.60;;
66581;SDS011;53438;48.898;2.308;2024-01-25T07:41:08;17.50;;;7.90;;
66581;SDS011;53438;48.898;2.308;2024-01-25T07:43:33;20.40;;;9.47;;
66581;SDS011;53438;48.898;2.308;2024-01-25T07:45:58;21.10;;;8.97;;
66581;SDS011;53438;48.898;2.308;2024-01-25T07:48:24;20.87;;;8.20;;
66581;SDS011;53438;48.898;2.308;2024-01-25T07:50:49;20.17;;;8.43;;
66581;SDS011;53438;48.898;2.308;2024-01-25T07:53:14;19.37;;;8.77;;
66581;SDS011;53438;48.898;2.308;2024-01-25T07:55:41;20.53;;;9.20;;
66581;SDS011;53438;48.898;2.308;2024-01-25T07:58:06;17.20;;;9.15;;
66581;SDS011;53438;48.898;2.308;2024-01-25T08:00:32;21.30;;;8.80;;
66581;SDS011;53438;48.898;2.308;2024-01-25T08:02:58;23.27;;;9.33;;
66581;SDS011;53438;48.898;2.308;2024-01-25T08:05:23;19.38;;;8.50;;
66581;SDS011;53438;48.898;2.308;2024-01-25T08:07:49;18.77;;;9.18;;
66581;SDS011;53438;48.898;2.308;2024-01-25T08:10:15;18.70;;;9.27;;
66581;SDS011;53438;48.898;2.308;2024-01-25T08:12:41;27.90;;;9.50;;
66581;SDS011;53438;48.898;2.308;2024-01-25T08:15:09;23.20;;;9.30;;
66581;SDS011;53438;48.898;2.308;2024-01-25T08:17:36;28.02;;;9.82;;
66581;SDS011;53438;48.898;2.308;2024-01-25T08:20:02;20.73;;;8.35;;
66581;SDS011;53438;48.898;2.308;2024-01-25T08:22:27;21.57;;;8.03;;
66581;SDS011;53438;48.898;2.308;2024-01-25T08:24:53;18.48;;;8.40;;
66581;SDS011;53438;48.898;2.308;2024-01-25T08:27:18;19.33;;;7.60;;
66581;SDS011;53438;48.898;2.308;2024-01-25T08:29:44;22.17;;;7.00;;
66581;SDS011;53438;48.898;2.308;2024-01-25T08:32:10;19.00;;;7.32;;
66581;SDS011;53438;48.898;2.308;2024-01-25T08:34:35;18.43;;;6.60;;
66581;SDS011;53438;48.898;2.308;2024-01-25T08:37:01;16.80;;;7.30;;
66581;SDS011;53438;48.898;2.308;2024-01-25T08:39:26;17.97;;;6.93;;
66581;SDS011;53438;48.898;2.308;2024-01-25T08:41:51;16.00;;;7.33;;
66581;SDS011;53438;48.898;2.308;2024-01-25T08:44:17;21.45;;;7.97;;
66581;SDS011;53438;48.898;2.308;2024-01-25T08:46:42;17.30;;;6.73;;
66581;SDS011;53438;48.898;2.308;2024-01-25T08:49:08;13.63;;;6.07;;
66581;SDS011;53438;48.898;2.308;2024-01-25T08:51:35;16.98;;;6.00;;
66581;SDS011;53438;48.898;2.308;2024-01-25T08:54:00;11.03;;;5.00;;
66581;SDS011;53438;48.898;2.308;2024-01-25T08:56:26;18.17;;;5.15;;
66581;SDS011;53438;48.898;2.308;2024-01-25T08:58:51;17.73;;;5.37;;
66581;SDS011;53438;48.898;2.308;2024-01-25T09:01:17;10.67;;;4.67;;
66581;SDS011;53438;48.898;2.308;2024-01-25T09:03:42;13.82;;;5.65;;
66581;SDS011;53438;48.898;2.308;2024-01-25T09:06:08;13.50;;;5.33;;
66581;SDS011;53438;48.898;2.308;2024-01-25T09:08:33;20.13;;;6.03;;
66581;SDS011;53438;48.898;2.308;2024-01-25T09:10:58;15.17;;;5.57;;
66581;SDS011;53438;48.898;2.308;2024-01-25T09:13:24;15.43;;;4.80;;
66581;SDS011;53438;48.898;2.308;2024-01-25T09:15:49;17.00;;;6.27;;
66581;SDS011;53438;48.898;2.308;2024-01-25T09:18:14;19.37;;;5.73;;
66581;SDS011;53438;48.898;2.308;2024-01-25T09:20:40;11.07;;;4.78;;
66581;SDS011;53438;48.898;2.308;2024-01-25T09:23:06;20.13;;;5.23;;
66581;SDS011;53438;48.898;2.308;2024-01-25T09:25:32;15.10;;;4.70;;
66581;SDS011;53438;48.898;2.308;2024-01-25T09:27:58;10.33;;;4.60;;
66581;SDS011;53438;48.898;2.308;2024-01-25T09:30:23;14.10;;;5.03;;
66581;SDS011;53438;48.898;2.308;2024-01-25T09:32:49;17.57;;;4.90;;
66581;SDS011;53438;48.898;2.308;2024-01-25T09:35:14;16.47;;;5.03;;
66581;SDS011;53438;48.898;2.308;2024-01-25T09:37:39;14.90;;;4.87;;
66581;SDS011;53438;48.898;2.308;2024-01-25T09:40:05;11.50;;;4.50;;
66581;SDS011;53438;48.898;2.308;2024-01-25T09:42:31;7.57;;;4.32;;
66581;SDS011;53438;48.898;2.308;2024-01-25T09:44:56;10.37;;;4.30;;
66581;SDS011;53438;48.898;2.308;2024-01-25T09:47:22;9.70;;;3.80;;
66581;SDS011;53438;48.898;2.308;2024-01-25T09:49:48;8.20;;;3.47;;
66581;SDS011;53438;48.898;2.308;2024-01-25T09:52:13;9.93;;;3.70;;
66581;SDS011;53438;48.898;2.308;2024-01-25T09:54:40;13.00;;;4.25;;
66581;SDS011;53438;48.898;2.308;2024-01-25T09:57:07;13.60;;;4.97;;
66581;SDS011;53438;48.898;2.308;2024-01-25T09:59:37;11.02;;;3.88;;
66581;SDS011;53438;48.898;2.308;2024-01-25T10:02:02;11.00;;;4.20;;
66581;SDS011;53438;48.898;2.308;2024-01-25T10:04:29;12.32;;;3.92;;
66581;SDS011;53438;48.898;2.308;2024-01-25T10:06:55;14.40;;;3.33;;
66581;SDS011;53438;48.898;2.308;2024-01-25T10:09:21;11.63;;;4.25;;
66581;SDS011;53438;48.898;2.308;2024-01-25T10:11:48;10.13;;;4.13;;
66581;SDS011;53438;48.898;2.308;2024-01-25T10:14:14;15.93;;;4.70;;
66581;SDS011;53438;48.898;2.308;2024-01-25T10:16:39;13.53;;;4.53;;
66581;SDS011;53438;48.898;2.308;2024-01-25T10:19:08;9.40;;;4.18;;
66581;SDS011;53438;48.898;2.308;2024-01-25T10:21:35;10.47;;;3.73;;
66581;SDS011;53438;48.898;2.308;2024-01-25T10:24:01;10.75;;;4.10;;
66581;SDS011;53438;48.898;2.308;2024-01-25T10:26:26;15.25;;;4.40;;
66581;SDS011;53438;48.898;2.308;2024-01-25T10:28:54;12.75;;;4.63;;
66581;SDS011;53438;48.898;2.308;2024-01-25T10:31:23;15.30;;;4.57;;
66581;SDS011;53438;48.898;2.308;2024-01-25T10:33:51;9.93;;;4.22;;
66581;SDS011;53438;48.898;2.308;2024-01-25T10:36:18;11.80;;;4.60;;
66581;SDS011;53438;48.898;2.308;2024-01-25T10:38:46;10.27;;;4.05;;
66581;SDS011;53438;48.898;2.308;2024-01-25T10:41:14;14.95;;;4.25;;
66581;SDS011;53438;48.898;2.308;2024-01-25T10:43:40;12.55;;;4.57;;
66581;SDS011;53438;48.898;2.308;2024-01-25T10:46:06;16.90;;;4.27;;
66581;SDS011;53438;48.898;2.308;2024-01-25T10:48:32;12.43;;;4.40;;
66581;SDS011;53438;48.898;2.308;2024-01-25T10:50:58;9.97;;;4.73;;
66581;SDS011;53438;48.898;2.308;2024-01-25T10:53:27;13.88;;;4.07;;
66581;SDS011;53438;48.898;2.308;2024-01-25T10:55:56;13.25;;;3.67;;
66581;SDS011;53438;48.898;2.308;2024-01-25T10:58:21;14.02;;;4.50;;
66581;SDS011;53438;48.898;2.308;2024-01-25T11:00:51;11.52;;;5.25;;
66581;SDS011;53438;48.898;2.308;2024-01-25T11:03:18;15.48;;;3.85;;
66581;SDS011;53438;48.898;2.308;2024-01-25T11:05:44;11.20;;;3.50;;
66581;SDS011;53438;48.898;2.308;2024-01-25T11:08:20;7.68;;;3.65;;
66581;SDS011;53438;48.898;2.308;2024-01-25T11:10:52;9.73;;;3.47;;
66581;SDS011;53438;48.898;2.308;2024-01-25T11:13:23;11.25;;;3.95;;
66581;SDS011;53438;48.898;2.308;2024-01-25T11:15:49;14.07;;;4.40;;
66581;SDS011;53438;48.898;2.308;2024-01-25T11:18:15;15.27;;;4.03;;
66581;SDS011;53438;48.898;2.308;2024-01-25T11:20:41;9.40;;;3.88;;
66581;SDS011;53438;48.898;2.308;2024-01-25T11:23:06;11.87;;;3.30;;
66581;SDS011;53438;48.898;2.308;2024-01-25T11:25:35;16.58;;;7.40;;
66581;SDS011;53438;48.898;2.308;2024-01-25T11:28:01;25.55;;;13.73;;
66581;SDS011;53438;48.898;2.308;2024-01-25T11:30:29;14.67;;;4.40;;
66581;SDS011;53438;48.898;2.308;2024-01-25T11:32:55;11.30;;;3.80;;
66581;SDS011;53438;48.898;2.308;2024-01-25T11:35:21;10.35;;;4.57;;
66581;SDS011;53438;48.898;2.308;2024-01-25T11:37:47;10.50;;;3.83;;
66581;SDS011;53438;48.898;2.308;2024-01-25T11:40:14;12.20;;;4.57;;
66581;SDS011;53438;48.898;2.308;2024-01-25T11:42:44;14.73;;;4.38;;
66581;SDS011;53438;48.898;2.308;2024-01-25T11:45:12;14.13;;;4.40;;
66581;SDS011;53438;48.898;2.308;2024-01-25T11:47:39;11.13;;;3.93;;
66581;SDS011;53438;48.898;2.308;2024-01-25T11:50:06;11.30;;;4.72;;
66581;SDS011;53438;48.898;2.308;2024-01-25T11:52:32;9.93;;;4.40;;
66581;SDS011;53438;48.898;2.308;2024-01-25T11:55:02;9.02;;;3.55;;
66581;SDS011;53438;48.898;2.308;2024-01-25T11:57:28;13.77;;;3.78;;
66581;SDS011;53438;48.898;2.308;2024-01-25T11:59:55;12.77;;;3.83;;
66581;SDS011;53438;48.898;2.308;2024-01-25T12:02:21;7.97;;;3.65;;
66581;SDS011;53438;48.898;2.308;2024-01-25T12:04:47;9.97;;;3.70;;
66581;SDS011;53438;48.898;2.308;2024-01-25T12:07:12;8.70;;;3.53;;
66581;SDS011;53438;48.898;2.308;2024-01-25T12:09:38;10.07;;;3.60;;
66581;SDS011;53438;48.898;2.308;2024-01-25T12:12:03;13.03;;;3.50;;
66581;SDS011;53438;48.898;2.308;2024-01-25T12:14:30;8.90;;;3.25;;
66581;SDS011;53438;48.898;2.308;2024-01-25T12:16:55;9.47;;;3.80;;
66581;SDS011;53438;48.898;2.308;2024-01-25T12:19:21;11.83;;;4.53;;
66581;SDS011;53438;48.898;2.308;2024-01-25T12:21:46;8.80;;;3.10;;
66581;SDS011;53438;48.898;2.308;2024-01-25T12:24:12;10.60;;;3.40;;
66581;SDS011;53438;48.898;2.308;2024-01-25T12:26:37;12.30;;;3.83;;
66581;SDS011;53438;48.898;2.308;2024-01-25T12:29:03;13.52;;;4.28;;
66581;SDS011;53438;48.898;2.308;2024-01-25T12:31:29;11.73;;;3.93;;
66581;SDS011;53438;48.898;2.308;2024-01-25T12:33:56;10.05;;;3.45;;
66581;SDS011;53438;48.898;2.308;2024-01-25T12:36:22;7.05;;;3.30;;
66581;SDS011;53438;48.898;2.308;2024-01-25T12:38:47;9.77;;;3.00;;
66581;SDS011;53438;48.898;2.308;2024-01-25T12:41:13;11.70;;;3.53;;
66581;SDS011;53438;48.898;2.308;2024-01-25T12:43:39;10.87;;;2.80;;
66581;SDS011;53438;48.898;2.308;2024-01-25T12:46:05;8.05;;;2.85;;
66581;SDS011;53438;48.898;2.308;2024-01-25T12:48:30;8.60;;;2.67;;
66581;SDS011;53438;48.898;2.308;2024-01-25T12:50:55;7.07;;;1.80;;
66581;SDS011;53438;48.898;2.308;2024-01-25T12:53:20;4.60;;;2.10;;
66581;SDS011;53438;48.898;2.308;2024-01-25T12:55:46;7.53;;;2.07;;
66581;SDS011;53438;48.898;2.308;2024-01-25T12:58:11;5.33;;;1.90;;
66581;SDS011;53438;48.898;2.308;2024-01-25T13:00:37;4.60;;;1.90;;
66581;SDS011;53438;48.898;2.308;2024-01-25T13:03:02;6.07;;;2.22;;
66581;SDS011;53438;48.898;2.308;2024-01-25T13:05:29;6.30;;;1.70;;
66581;SDS011;53438;48.898;2.308;2024-01-25T13:07:58;4.93;;;2.08;;
66581;SDS011;53438;48.898;2.308;2024-01-25T13:10:24;7.63;;;2.00;;
66581;SDS011;53438;48.898;2.308;2024-01-25T13:12:49;6.17;;;1.60;;
66581;SDS011;53438;48.898;2.308;2024-01-25T13:15:15;5.85;;;1.77;;
66581;SDS011;53438;48.898;2.308;2024-01-25T13:17:41;7.57;;;1.90;;
66581;SDS011;53438;48.898;2.308;2024-01-25T13:20:07;7.60;;;1.47;;
66581;SDS011;53438;48.898;2.308;2024-01-25T13:22:33;5.05;;;1.58;;
66581;SDS011;53438;48.898;2.308;2024-01-25T13:24:59;6.82;;;2.22;;
66581;SDS011;53438;48.898;2.308;2024-01-25T13:27:25;9.40;;;2.40;;
66581;SDS011;53438;48.898;2.308;2024-01-25T13:29:51;5.47;;;1.73;;
66581;SDS011;53438;48.898;2.308;2024-01-25T13:32:17;5.00;;;1.90;;
66581;SDS011;53438;48.898;2.308;2024-01-25T13:34:42;6.45;;;1.52;;
66581;SDS011;53438;48.898;2.308;2024-01-25T13:37:07;6.80;;;2.57;;
66581;SDS011;53438;48.898;2.308;2024-01-25T13:39:32;7.37;;;2.03;;
66581;SDS011;53438;48.898;2.308;2024-01-25T13:41:58;7.40;;;1.73;;
66581;SDS011;53438;48.898;2.308;2024-01-25T13:44:24;5.35;;;1.73;;
66581;SDS011;53438;48.898;2.308;2024-01-25T13:46:50;5.77;;;1.37;;
66581;SDS011;53438;48.898;2.308;2024-01-25T13:49:16;7.37;;;1.90;;
66581;SDS011;53438;48.898;2.308;2024-01-25T13:51:41;6.93;;;1.90;;
66581;SDS011;53438;48.898;2.308;2024-01-25T13:54:10;6.28;;;1.88;;
66581;SDS011;53438;48.898;2.308;2024-01-25T13:56:35;6.43;;;1.57;;
66581;SDS011;53438;48.898;2.308;2024-01-25T13:59:00;4.80;;;1.60;;
66581;SDS011;53438;48.898;2.308;2024-01-25T14:01:26;7.22;;;1.88;;
66581;SDS011;53438;48.898;2.308;2024-01-25T14:03:51;4.03;;;1.60;;
66581;SDS011;53438;48.898;2.308;2024-01-25T14:06:16;6.40;;;1.87;;
66581;SDS011;53438;48.898;2.308;2024-01-25T14:08:42;4.70;;;1.70;;
66581;SDS011;53438;48.898;2.308;2024-01-25T14:11:07;9.67;;;2.50;;
66581;SDS011;53438;48.898;2.308;2024-01-25T14:13:34;5.47;;;2.08;;
66581;SDS011;53438;48.898;2.308;2024-01-25T14:15:59;4.43;;;1.33;;
66581;SDS011;53438;48.898;2.308;2024-01-25T14:18:26;5.70;;;1.77;;
66581;SDS011;53438;48.898;2.308;2024-01-25T14:20:53;4.72;;;1.42;;
66581;SDS011;53438;48.898;2.308;2024-01-25T14:23:18;4.87;;;1.23;;
66581;SDS011;53438;48.898;2.308;2024-01-25T14:25:43;4.57;;;1.50;;
66581;SDS011;53438;48.898;2.308;2024-01-25T14:28:10;5.57;;;1.50;;
66581;SDS011;53438;48.898;2.308;2024-01-25T14:30:35;7.27;;;1.53;;
66581;SDS011;53438;48.898;2.308;2024-01-25T14:33:00;3.43;;;1.20;;
66581;SDS011;53438;48.898;2.308;2024-01-25T14:35:26;6.90;;;1.80;;
66581;SDS011;53438;48.898;2.308;2024-01-25T14:37:53;7.05;;;1.83;;
66581;SDS011;53438;48.898;2.308;2024-01-25T14:40:19;3.22;;;1.23;;
66581;SDS011;53438;48.898;2.308;2024-01-25T14:42:46;3.93;;;1.13;;
66581;SDS011;53438;48.898;2.308;2024-01-25T14:45:12;5.28;;;1.50;;
66581;SDS011;53438;48.898;2.308;2024-01-25T14:47:37;5.53;;;1.30;;
66581;SDS011;53438;48.898;2.308;2024-01-25T14:50:02;4.83;;;1.10;;
66581;SDS011;53438;48.898;2.308;2024-01-25T14:52:28;4.70;;;1.15;;
66581;SDS011;53438;48.898;2.308;2024-01-25T14:54:53;4.32;;;0.82;;
66581;SDS011;53438;48.898;2.308;2024-01-25T14:57:19;3.23;;;1.10;;
66581;SDS011;53438;48.898;2.308;2024-01-25T14:59:44;4.33;;;1.80;;
66581;SDS011;53438;48.898;2.308;2024-01-25T15:02:10;6.53;;;1.20;;
66581;SDS011;53438;48.898;2.308;2024-01-25T15:04:36;3.60;;;1.23;;
66581;SDS011;53438;48.898;2.308;2024-01-25T15:07:01;4.10;;;1.10;;
66581;SDS011;53438;48.898;2.308;2024-01-25T15:09:26;12.53;;;1.40;;
66581;SDS011;53438;48.898;2.308;2024-01-25T15:11:52;3.03;;;0.97;;
66581;SDS011;53438;48.898;2.308;2024-01-25T15:14:17;4.93;;;1.17;;
66581;SDS011;53438;48.898;2.308;2024-01-25T15:16:42;6.17;;;1.33;;
66581;SDS011;53438;48.898;2.308;2024-01-25T15:19:07;3.83;;;1.07;;
66581;SDS011;53438;48.898;2.308;2024-01-25T15:21:33;6.82;;;1.30;;
66581;SDS011;53438;48.898;2.308;2024-01-25T15:23:58;6.80;;;1.23;;
66581;SDS011;53438;48.898;2.308;2024-01-25T15:26:23;4.40;;;1.03;;
66581;SDS011;53438;48.898;2.308;2024-01-25T15:28:49;1.93;;;0.97;;
66581;SDS011;53438;48.898;2.308;2024-01-25T15:31:15;6.82;;;1.20;;
66581;SDS011;53438;48.898;2.308;2024-01-25T15:33:41;2.73;;;0.93;;
66581;SDS011;53438;48.898;2.308;2024-01-25T15:36:07;3.50;;;0.82;;
66581;SDS011;53438;48.898;2.308;2024-01-25T15:38:33;2.70;;;0.90;;
66581;SDS011;53438;48.898;2.308;2024-01-25T15:40:58;4.27;;;1.33;;
66581;SDS011;53438;48.898;2.308;2024-01-25T15:43:23;4.50;;;1.47;;
66581;SDS011;53438;48.898;2.308;2024-01-25T15:45:49;7.93;;;2.70;;
66581;SDS011;53438;48.898;2.308;2024-01-25T15:48:14;2.67;;;0.95;;
66581;SDS011;53438;48.898;2.308;2024-01-25T15:50:39;3.07;;;1.03;;
66581;SDS011;53438;48.898;2.308;2024-01-25T15:53:05;3.40;;;0.83;;
66581;SDS011;53438;48.898;2.308;2024-01-25T15:55:30;2.93;;;0.80;;
66581;SDS011;53438;48.898;2.308;2024-01-25T15:57:55;5.53;;;0.67;;
66581;SDS011;53438;48.898;2.308;2024-01-25T16:00:21;2.13;;;1.13;;
66581;SDS011;53438;48.898;2.308;2024-01-25T16:02:47;3.40;;;2.20;;
66581;SDS011;53438;48.898;2.308;2024-01-25T16:05:12;4.82;;;2.03;;
66581;SDS011;53438;48.898;2.308;2024-01-25T16:07:38;5.53;;;2.43;;
66581;SDS011;53438;48.898;2.308;2024-01-25T16:10:04;6.43;;;3.63;;
66581;SDS011;53438;48.898;2.308;2024-01-25T16:12:29;18.67;;;8.37;;
66581;SDS011;53438;48.898;2.308;2024-01-25T16:14:55;3.55;;;1.23;;
66581;SDS011;53438;48.898;2.308;2024-01-25T16:17:21;2.30;;;1.20;;
66581;SDS011;53438;48.898;2.308;2024-01-25T16:19:46;1.77;;;0.77;;
66581;SDS011;53438;48.898;2.308;2024-01-25T16:22:12;3.83;;;0.87;;
66581;SDS011;53438;48.898;2.308;2024-01-25T16:24:39;3.53;;;0.82;;
66581;SDS011;53438;48.898;2.308;2024-01-25T16:27:05;3.45;;;1.10;;
66581;SDS011;53438;48.898;2.308;2024-01-25T16:29:30;3.70;;;1.03;;
66581;SDS011;53438;48.898;2.308;2024-01-25T16:31:55;3.20;;;1.20;;
66581;SDS011;53438;48.898;2.308;2024-01-25T16:34:21;4.00;;;1.10;;
66581;SDS011;53438;48.898;2.308;2024-01-25T16:36:47;2.47;;;0.88;;
66581;SDS011;53438;48.898;2.308;2024-01-25T16:39:14;2.30;;;1.00;;
66581;SDS011;53438;48.898;2.308;2024-01-25T16:41:40;4.53;;;1.05;;
66581;SDS011;53438;48.898;2.308;2024-01-25T16:44:06;3.42;;;1.63;;
66581;SDS011;53438;48.898;2.308;2024-01-25T16:46:31;5.53;;;2.07;;
66581;SDS011;53438;48.898;2.308;2024-01-25T16:48:57;3.33;;;1.57;;
66581;SDS011;53438;48.898;2.308;2024-01-25T16:51:22;2.13;;;1.13;;
66581;SDS011;53438;48.898;2.308;2024-01-25T16:53:48;2.37;;;1.20;;
66581;SDS011;53438;48.898;2.308;2024-01-25T16:56:13;6.20;;;1.10;;
66581;SDS011;53438;48.898;2.308;2024-01-25T16:58:38;3.60;;;1.48;;
66581;SDS011;53438;48.898;2.308;2024-01-25T17:01:04;3.83;;;1.40;;
66581;SDS011;53438;48.898;2.308;2024-01-25T17:03:30;4.90;;;1.20;;
66581;SDS011;53438;48.898;2.308;2024-01-25T17:05:56;2.05;;;1.38;;
66581;SDS011;53438;48.898;2.308;2024-01-25T17:08:22;3.13;;;1.20;;
66581;SDS011;53438;48.898;2.308;2024-01-25T17:10:47;3.70;;;1.88;;
66581;SDS011;53438;48.898;2.308;2024-01-25T17:13:12;5.20;;;1.73;;
66581;SDS011;53438;48.898;2.308;2024-01-25T17:15:38;3.10;;;1.93;;
66581;SDS011;53438;48.898;2.308;2024-01-25T17:18:03;5.10;;;2.20;;
66581;SDS011;53438;48.898;2.308;2024-01-25T17:20:29;3.17;;;1.57;;
66581;SDS011;53438;48.898;2.308;2024-01-25T17:22:56;4.07;;;1.70;;
66581;SDS011;53438;48.898;2.308;2024-01-25T17:25:22;5.13;;;1.88;;
66581;SDS011;53438;48.898;2.308;2024-01-25T17:27:47;4.27;;;1.40;;
66581;SDS011;53438;48.898;2.308;2024-01-25T17:30:13;5.13;;;1.60;;
66581;SDS011;53438;48.898;2.308;2024-01-25T17:32:39;4.38;;;1.77;;